sensor_id;sensor_type;location;lat;lon;timestamp;P1;durP1;ratioP1;P2;durP2;ratioP2
10383;SDS011;5238;43.508;4.980;2022-10-31T00:00:24;15.48;;;10.00;;
10383;SDS011;5238;43.508;4.980;2022-10-31T00:02:59;20.20;;;10.90;;
10383;SDS011;5238;43.508;4.980;2022-10-31T00:05:33;18.38;;;10.65;;
10383;SDS011;5238;43.508;4.980;2022-10-31T00:08:01;24.05;;;11.20;;
10383;SDS011;5238;43.508;4.980;2022-10-31T00:10:32;23.77;;;10.50;;
10383;SDS011;5238;43.508;4.980;2022-10-31T00:13:11;22.05;;;10.63;;
10383;SDS011;5238;43.508;4.980;2022-10-31T00:15:39;20.42;;;10.40;;
10383;SDS011;5238;43.508;4.980;2022-10-31T00:18:08;19.80;;;10.95;;
10383;SDS011;5238;43.508;4.980;2022-10-31T00:20:43;20.00;;;10.43;;
10383;SDS011;5238;43.508;4.980;2022-10-31T00:23:13;21.38;;;10.95;;
10383;SDS011;5238;43.508;4.980;2022-10-31T00:28:44;17.60;;;10.57;;
10383;SDS011;5238;43.508;4.980;2022-10-31T00:31:23;19.85;;;10.27;;
10383;SDS011;5238;43.508;4.980;2022-10-31T00:34:03;18.90;;;10.50;;
10383;SDS011;5238;43.508;4.980;2022-10-31T00:36:33;22.55;;;11.10;;
10383;SDS011;5238;43.508;4.980;2022-10-31T00:39:03;22.95;;;11.13;;
10383;SDS011;5238;43.508;4.980;2022-10-31T00:41:34;18.75;;;10.23;;
10383;SDS011;5238;43.508;4.980;2022-10-31T00:44:01;21.67;;;9.60;;
10383;SDS011;5238;43.508;4.980;2022-10-31T00:46:36;20.15;;;9.98;;
10383;SDS011;5238;43.508;4.980;2022-10-31T00:49:12;19.70;;;9.55;;
10383;SDS011;5238;43.508;4.980;2022-10-31T00:51:41;20.38;;;10.48;;
10383;SDS011;5238;43.508;4.980;2022-10-31T00:54:08;14.93;;;9.88;;
10383;SDS011;5238;43.508;4.980;2022-10-31T00:56:41;20.77;;;9.40;;
10383;SDS011;5238;43.508;4.980;2022-10-31T00:59:09;23.95;;;9.98;;
10383;SDS011;5238;43.508;4.980;2022-10-31T01:01:44;16.73;;;9.80;;
10383;SDS011;5238;43.508;4.980;2022-10-31T01:04:13;21.52;;;10.02;;
10383;SDS011;5238;43.508;4.980;2022-10-31T01:06:42;13.45;;;9.40;;
10383;SDS011;5238;43.508;4.980;2022-10-31T01:09:13;16.38;;;10.40;;
10383;SDS011;5238;43.508;4.980;2022-10-31T01:11:45;17.83;;;9.40;;
10383;SDS011;5238;43.508;4.980;2022-10-31T01:14:28;21.95;;;9.95;;
10383;SDS011;5238;43.508;4.980;2022-10-31T01:16:58;21.15;;;9.27;;
10383;SDS011;5238;43.508;4.980;2022-10-31T01:19:27;18.60;;;9.65;;
10383;SDS011;5238;43.508;4.980;2022-10-31T01:21:58;17.73;;;10.05;;
10383;SDS011;5238;43.508;4.980;2022-10-31T01:24:33;16.38;;;9.10;;
10383;SDS011;5238;43.508;4.980;2022-10-31T01:27:06;18.23;;;10.52;;
10383;SDS011;5238;43.508;4.980;2022-10-31T01:29:45;18.55;;;9.45;;
10383;SDS011;5238;43.508;4.980;2022-10-31T01:32:15;17.00;;;9.18;;
10383;SDS011;5238;43.508;4.980;2022-10-31T01:34:47;17.08;;;9.50;;
10383;SDS011;5238;43.508;4.980;2022-10-31T01:37:18;17.92;;;9.63;;
10383;SDS011;5238;43.508;4.980;2022-10-31T01:39:47;16.63;;;9.00;;
10383;SDS011;5238;43.508;4.980;2022-10-31T01:42:20;18.88;;;9.75;;
10383;SDS011;5238;43.508;4.980;2022-10-31T01:44:56;15.35;;;9.50;;
10383;SDS011;5238;43.508;4.980;2022-10-31T01:47:29;20.27;;;9.63;;
10383;SDS011;5238;43.508;4.980;2022-10-31T01:50:04;17.77;;;9.75;;
10383;SDS011;5238;43.508;4.980;2022-10-31T01:52:46;20.92;;;9.20;;
10383;SDS011;5238;43.508;4.980;2022-10-31T01:55:27;18.85;;;9.40;;
10383;SDS011;5238;43.508;4.980;2022-10-31T01:58:06;14.98;;;8.63;;
10383;SDS011;5238;43.508;4.980;2022-10-31T02:00:40;19.48;;;9.13;;
10383;SDS011;5238;43.508;4.980;2022-10-31T02:03:15;17.45;;;9.35;;
10383;SDS011;5238;43.508;4.980;2022-10-31T02:06:07;16.60;;;9.20;;
10383;SDS011;5238;43.508;4.980;2022-10-31T02:08:48;17.75;;;9.30;;
10383;SDS011;5238;43.508;4.980;2022-10-31T02:11:22;15.40;;;8.95;;
10383;SDS011;5238;43.508;4.980;2022-10-31T02:13:58;18.77;;;8.98;;
10383;SDS011;5238;43.508;4.980;2022-10-31T02:16:43;19.58;;;8.85;;
10383;SDS011;5238;43.508;4.980;2022-10-31T02:19:21;17.63;;;9.10;;
10383;SDS011;5238;43.508;4.980;2022-10-31T02:22:04;19.05;;;9.07;;
10383;SDS011;5238;43.508;4.980;2022-10-31T02:25:09;12.82;;;8.48;;
10383;SDS011;5238;43.508;4.980;2022-10-31T02:28:01;16.92;;;8.60;;
10383;SDS011;5238;43.508;4.980;2022-10-31T02:31:09;12.38;;;8.73;;
10383;SDS011;5238;43.508;4.980;2022-10-31T02:33:53;20.90;;;8.75;;
10383;SDS011;5238;43.508;4.980;2022-10-31T02:36:48;14.40;;;8.48;;
10383;SDS011;5238;43.508;4.980;2022-10-31T02:39:34;16.35;;;8.45;;
10383;SDS011;5238;43.508;4.980;2022-10-31T02:42:13;15.52;;;8.25;;
10383;SDS011;5238;43.508;4.980;2022-10-31T02:44:55;15.25;;;8.60;;
10383;SDS011;5238;43.508;4.980;2022-10-31T02:47:34;17.27;;;8.60;;
10383;SDS011;5238;43.508;4.980;2022-10-31T02:50:06;15.05;;;8.27;;
10383;SDS011;5238;43.508;4.980;2022-10-31T02:52:41;19.67;;;8.98;;
10383;SDS011;5238;43.508;4.980;2022-10-31T02:58:13;17.83;;;8.15;;
10383;SDS011;5238;43.508;4.980;2022-10-31T03:00:45;14.07;;;8.05;;
10383;SDS011;5238;43.508;4.980;2022-10-31T03:03:40;22.40;;;9.60;;
10383;SDS011;5238;43.508;4.980;2022-10-31T03:06:45;14.00;;;8.60;;
10383;SDS011;5238;43.508;4.980;2022-10-31T03:09:21;19.65;;;8.63;;
10383;SDS011;5238;43.508;4.980;2022-10-31T03:11:53;17.48;;;9.13;;
10383;SDS011;5238;43.508;4.980;2022-10-31T03:14:34;14.60;;;8.30;;
10383;SDS011;5238;43.508;4.980;2022-10-31T03:17:07;18.25;;;8.43;;
10383;SDS011;5238;43.508;4.980;2022-10-31T03:19:44;14.80;;;7.75;;
10383;SDS011;5238;43.508;4.980;2022-10-31T03:22:36;15.00;;;8.40;;
10383;SDS011;5238;43.508;4.980;2022-10-31T03:25:15;18.27;;;8.80;;
10383;SDS011;5238;43.508;4.980;2022-10-31T03:27:57;15.35;;;7.55;;
10383;SDS011;5238;43.508;4.980;2022-10-31T03:30:35;11.63;;;7.45;;
10383;SDS011;5238;43.508;4.980;2022-10-31T03:33:15;16.83;;;7.95;;
10383;SDS011;5238;43.508;4.980;2022-10-31T03:35:48;14.32;;;8.02;;
10383;SDS011;5238;43.508;4.980;2022-10-31T03:38:32;13.20;;;7.53;;
10383;SDS011;5238;43.508;4.980;2022-10-31T03:41:10;12.82;;;7.53;;
10383;SDS011;5238;43.508;4.980;2022-10-31T03:44:03;13.38;;;7.95;;
10383;SDS011;5238;43.508;4.980;2022-10-31T03:46:34;13.93;;;7.68;;
10383;SDS011;5238;43.508;4.980;2022-10-31T03:49:09;17.70;;;7.75;;
10383;SDS011;5238;43.508;4.980;2022-10-31T03:51:42;13.50;;;7.70;;
10383;SDS011;5238;43.508;4.980;2022-10-31T03:54:20;17.60;;;7.60;;
10383;SDS011;5238;43.508;4.980;2022-10-31T03:57:03;13.63;;;7.57;;
10383;SDS011;5238;43.508;4.980;2022-10-31T03:59:39;13.65;;;8.45;;
10383;SDS011;5238;43.508;4.980;2022-10-31T04:02:19;16.15;;;8.02;;
10383;SDS011;5238;43.508;4.980;2022-10-31T04:04:50;12.35;;;7.00;;
10383;SDS011;5238;43.508;4.980;2022-10-31T04:07:22;12.13;;;7.05;;
10383;SDS011;5238;43.508;4.980;2022-10-31T04:10:02;10.30;;;6.80;;
10383;SDS011;5238;43.508;4.980;2022-10-31T04:12:53;15.23;;;7.20;;
10383;SDS011;5238;43.508;4.980;2022-10-31T04:15:27;10.98;;;7.05;;
10383;SDS011;5238;43.508;4.980;2022-10-31T04:18:03;16.13;;;7.28;;
10383;SDS011;5238;43.508;4.980;2022-10-31T04:20:36;14.32;;;7.05;;
10383;SDS011;5238;43.508;4.980;2022-10-31T04:23:08;15.95;;;7.18;;
10383;SDS011;5238;43.508;4.980;2022-10-31T04:26:02;10.45;;;6.18;;
10383;SDS011;5238;43.508;4.980;2022-10-31T04:28:35;14.25;;;7.00;;
10383;SDS011;5238;43.508;4.980;2022-10-31T04:31:27;14.38;;;6.55;;
10383;SDS011;5238;43.508;4.980;2022-10-31T04:34:03;10.90;;;6.53;;
10383;SDS011;5238;43.508;4.980;2022-10-31T04:36:35;14.48;;;7.07;;
10383;SDS011;5238;43.508;4.980;2022-10-31T04:39:18;12.23;;;6.35;;
10383;SDS011;5238;43.508;4.980;2022-10-31T04:41:49;19.60;;;6.15;;
10383;SDS011;5238;43.508;4.980;2022-10-31T04:44:16;13.50;;;6.32;;
10383;SDS011;5238;43.508;4.980;2022-10-31T04:46:44;12.52;;;6.05;;
10383;SDS011;5238;43.508;4.980;2022-10-31T04:49:11;9.65;;;5.90;;
10383;SDS011;5238;43.508;4.980;2022-10-31T04:51:43;11.63;;;5.78;;
10383;SDS011;5238;43.508;4.980;2022-10-31T04:54:25;11.57;;;5.88;;
10383;SDS011;5238;43.508;4.980;2022-10-31T04:57:06;12.77;;;6.05;;
10383;SDS011;5238;43.508;4.980;2022-10-31T04:59:41;9.27;;;6.03;;
10383;SDS011;5238;43.508;4.980;2022-10-31T05:02:18;12.23;;;6.05;;
10383;SDS011;5238;43.508;4.980;2022-10-31T05:04:45;10.35;;;6.13;;
10383;SDS011;5238;43.508;4.980;2022-10-31T05:07:16;16.02;;;5.88;;
10383;SDS011;5238;43.508;4.980;2022-10-31T05:09:56;10.68;;;6.07;;
10383;SDS011;5238;43.508;4.980;2022-10-31T05:12:32;20.45;;;5.78;;
10383;SDS011;5238;43.508;4.980;2022-10-31T05:15:12;16.60;;;6.10;;
10383;SDS011;5238;43.508;4.980;2022-10-31T05:17:43;10.73;;;5.28;;
10383;SDS011;5238;43.508;4.980;2022-10-31T05:20:11;11.93;;;6.55;;
10383;SDS011;5238;43.508;4.980;2022-10-31T05:22:48;10.38;;;5.70;;
10383;SDS011;5238;43.508;4.980;2022-10-31T05:25:23;9.35;;;5.88;;
10383;SDS011;5238;43.508;4.980;2022-10-31T05:27:58;9.27;;;6.00;;
10383;SDS011;5238;43.508;4.980;2022-10-31T05:30:37;12.93;;;5.63;;
10383;SDS011;5238;43.508;4.980;2022-10-31T05:33:07;8.07;;;5.32;;
10383;SDS011;5238;43.508;4.980;2022-10-31T05:35:35;11.13;;;5.95;;
10383;SDS011;5238;43.508;4.980;2022-10-31T05:38:03;11.80;;;5.57;;
10383;SDS011;5238;43.508;4.980;2022-10-31T05:40:36;13.20;;;5.78;;
10383;SDS011;5238;43.508;4.980;2022-10-31T05:43:12;11.85;;;5.90;;
10383;SDS011;5238;43.508;4.980;2022-10-31T05:45:44;12.27;;;5.50;;
10383;SDS011;5238;43.508;4.980;2022-10-31T05:48:11;10.82;;;5.57;;
10383;SDS011;5238;43.508;4.980;2022-10-31T05:50:38;13.13;;;5.78;;
10383;SDS011;5238;43.508;4.980;2022-10-31T05:53:07;14.38;;;6.60;;
10383;SDS011;5238;43.508;4.980;2022-10-31T05:55:43;15.02;;;5.97;;
10383;SDS011;5238;43.508;4.980;2022-10-31T05:58:18;12.60;;;5.15;;
10383;SDS011;5238;43.508;4.980;2022-10-31T06:00:59;11.15;;;5.75;;
10383;SDS011;5238;43.508;4.980;2022-10-31T06:03:28;15.07;;;6.28;;
10383;SDS011;5238;43.508;4.980;2022-10-31T06:05:55;13.20;;;5.70;;
10383;SDS011;5238;43.508;4.980;2022-10-31T06:08:23;12.88;;;5.90;;
10383;SDS011;5238;43.508;4.980;2022-10-31T06:10:51;14.50;;;6.10;;
10383;SDS011;5238;43.508;4.980;2022-10-31T06:13:23;9.65;;;5.35;;
10383;SDS011;5238;43.508;4.980;2022-10-31T06:15:52;7.63;;;5.30;;
10383;SDS011;5238;43.508;4.980;2022-10-31T06:18:22;13.13;;;5.55;;
10383;SDS011;5238;43.508;4.980;2022-10-31T06:20:55;12.98;;;5.70;;
10383;SDS011;5238;43.508;4.980;2022-10-31T06:23:24;11.30;;;6.13;;
10383;SDS011;5238;43.508;4.980;2022-10-31T06:25:54;13.13;;;5.60;;
10383;SDS011;5238;43.508;4.980;2022-10-31T06:28:22;12.90;;;6.00;;
10383;SDS011;5238;43.508;4.980;2022-10-31T06:30:50;14.27;;;5.90;;
10383;SDS011;5238;43.508;4.980;2022-10-31T06:33:30;15.52;;;5.90;;
10383;SDS011;5238;43.508;4.980;2022-10-31T06:36:05;12.90;;;6.00;;
10383;SDS011;5238;43.508;4.980;2022-10-31T06:38:34;14.32;;;5.82;;
10383;SDS011;5238;43.508;4.980;2022-10-31T06:41:09;9.50;;;5.90;;
10383;SDS011;5238;43.508;4.980;2022-10-31T06:43:42;12.25;;;5.68;;
10383;SDS011;5238;43.508;4.980;2022-10-31T06:46:17;12.88;;;6.07;;
10383;SDS011;5238;43.508;4.980;2022-10-31T06:48:59;9.50;;;5.78;;
10383;SDS011;5238;43.508;4.980;2022-10-31T06:51:51;12.20;;;6.45;;
10383;SDS011;5238;43.508;4.980;2022-10-31T06:54:21;15.85;;;5.90;;
10383;SDS011;5238;43.508;4.980;2022-10-31T06:56:55;14.80;;;6.07;;
10383;SDS011;5238;43.508;4.980;2022-10-31T06:59:23;11.55;;;5.22;;
10383;SDS011;5238;43.508;4.980;2022-10-31T07:02:07;14.93;;;6.00;;
10383;SDS011;5238;43.508;4.980;2022-10-31T07:04:35;12.57;;;6.55;;
10383;SDS011;5238;43.508;4.980;2022-10-31T07:07:06;12.68;;;5.65;;
10383;SDS011;5238;43.508;4.980;2022-10-31T07:09:47;10.98;;;6.20;;
10383;SDS011;5238;43.508;4.980;2022-10-31T07:12:55;12.43;;;5.70;;
10383;SDS011;5238;43.508;4.980;2022-10-31T07:15:23;9.52;;;5.93;;
10383;SDS011;5238;43.508;4.980;2022-10-31T07:17:52;14.15;;;5.70;;
10383;SDS011;5238;43.508;4.980;2022-10-31T07:20:21;19.40;;;6.57;;
10383;SDS011;5238;43.508;4.980;2022-10-31T07:22:48;15.50;;;6.65;;
10383;SDS011;5238;43.508;4.980;2022-10-31T07:25:19;14.32;;;5.35;;
10383;SDS011;5238;43.508;4.980;2022-10-31T07:27:47;12.07;;;6.35;;
10383;SDS011;5238;43.508;4.980;2022-10-31T07:33:04;14.45;;;6.10;;
10383;SDS011;5238;43.508;4.980;2022-10-31T07:35:39;14.63;;;6.15;;
10383;SDS011;5238;43.508;4.980;2022-10-31T07:38:08;14.45;;;6.43;;
10383;SDS011;5238;43.508;4.980;2022-10-31T07:40:39;12.20;;;6.20;;
10383;SDS011;5238;43.508;4.980;2022-10-31T07:43:08;11.30;;;6.75;;
10383;SDS011;5238;43.508;4.980;2022-10-31T07:45:45;15.20;;;6.55;;
10383;SDS011;5238;43.508;4.980;2022-10-31T07:48:17;13.50;;;7.00;;
10383;SDS011;5238;43.508;4.980;2022-10-31T07:50:48;14.20;;;5.85;;
10383;SDS011;5238;43.508;4.980;2022-10-31T07:53:17;14.00;;;6.32;;
10383;SDS011;5238;43.508;4.980;2022-10-31T07:55:58;17.10;;;6.40;;
10383;SDS011;5238;43.508;4.980;2022-10-31T07:58:34;13.73;;;6.63;;
10383;SDS011;5238;43.508;4.980;2022-10-31T08:01:20;13.85;;;6.90;;
10383;SDS011;5238;43.508;4.980;2022-10-31T08:03:49;13.43;;;6.28;;
10383;SDS011;5238;43.508;4.980;2022-10-31T08:06:20;12.18;;;6.25;;
10383;SDS011;5238;43.508;4.980;2022-10-31T08:08:50;15.55;;;6.93;;
10383;SDS011;5238;43.508;4.980;2022-10-31T08:11:32;13.05;;;6.57;;
10383;SDS011;5238;43.508;4.980;2022-10-31T08:14:02;11.75;;;6.85;;
10383;SDS011;5238;43.508;4.980;2022-10-31T08:16:44;16.20;;;6.25;;
10383;SDS011;5238;43.508;4.980;2022-10-31T08:19:17;14.73;;;7.00;;
10383;SDS011;5238;43.508;4.980;2022-10-31T08:21:59;15.75;;;6.82;;
10383;SDS011;5238;43.508;4.980;2022-10-31T08:24:40;15.30;;;6.28;;
10383;SDS011;5238;43.508;4.980;2022-10-31T08:27:10;9.82;;;6.38;;
10383;SDS011;5238;43.508;4.980;2022-10-31T08:29:41;15.32;;;6.88;;
10383;SDS011;5238;43.508;4.980;2022-10-31T08:32:13;13.07;;;5.95;;
10383;SDS011;5238;43.508;4.980;2022-10-31T08:34:40;12.90;;;6.38;;
10383;SDS011;5238;43.508;4.980;2022-10-31T08:37:07;14.73;;;7.10;;
10383;SDS011;5238;43.508;4.980;2022-10-31T08:39:35;15.18;;;7.07;;
10383;SDS011;5238;43.508;4.980;2022-10-31T08:42:17;16.15;;;7.45;;
10383;SDS011;5238;43.508;4.980;2022-10-31T08:44:58;20.10;;;8.45;;
10383;SDS011;5238;43.508;4.980;2022-10-31T08:47:30;20.15;;;7.53;;
10383;SDS011;5238;43.508;4.980;2022-10-31T08:50:00;16.50;;;7.32;;
10383;SDS011;5238;43.508;4.980;2022-10-31T08:52:28;15.45;;;7.82;;
10383;SDS011;5238;43.508;4.980;2022-10-31T08:54:58;15.88;;;7.70;;
10383;SDS011;5238;43.508;4.980;2022-10-31T08:57:29;17.98;;;7.63;;
10383;SDS011;5238;43.508;4.980;2022-10-31T09:00:10;15.45;;;7.53;;
10383;SDS011;5238;43.508;4.980;2022-10-31T09:05:54;16.45;;;6.85;;
10383;SDS011;5238;43.508;4.980;2022-10-31T09:08:42;19.92;;;7.38;;
10383;SDS011;5238;43.508;4.980;2022-10-31T09:11:12;17.27;;;6.85;;
10383;SDS011;5238;43.508;4.980;2022-10-31T09:13:40;13.68;;;5.85;;
10383;SDS011;5238;43.508;4.980;2022-10-31T09:16:11;13.32;;;5.85;;
10383;SDS011;5238;43.508;4.980;2022-10-31T09:21:52;10.10;;;5.32;;
10383;SDS011;5238;43.508;4.980;2022-10-31T09:24:34;10.55;;;5.22;;
10383;SDS011;5238;43.508;4.980;2022-10-31T09:27:15;13.98;;;5.97;;
10383;SDS011;5238;43.508;4.980;2022-10-31T09:29:56;14.82;;;5.70;;
10383;SDS011;5238;43.508;4.980;2022-10-31T09:32:37;15.45;;;5.63;;
10383;SDS011;5238;43.508;4.980;2022-10-31T09:35:18;12.05;;;5.45;;
10383;SDS011;5238;43.508;4.980;2022-10-31T09:40:45;15.30;;;5.88;;
10383;SDS011;5238;43.508;4.980;2022-10-31T09:43:29;16.42;;;5.70;;
10383;SDS011;5238;43.508;4.980;2022-10-31T09:46:04;15.32;;;5.63;;
10383;SDS011;5238;43.508;4.980;2022-10-31T09:48:56;15.38;;;5.47;;
10383;SDS011;5238;43.508;4.980;2022-10-31T09:51:38;12.57;;;5.30;;
10383;SDS011;5238;43.508;4.980;2022-10-31T09:54:25;11.60;;;5.57;;
10383;SDS011;5238;43.508;4.980;2022-10-31T09:56:57;18.10;;;5.82;;
10383;SDS011;5238;43.508;4.980;2022-10-31T09:59:28;12.38;;;5.43;;
10383;SDS011;5238;43.508;4.980;2022-10-31T10:02:03;14.00;;;5.38;;
10383;SDS011;5238;43.508;4.980;2022-10-31T10:04:51;13.57;;;4.55;;
10383;SDS011;5238;43.508;4.980;2022-10-31T10:07:27;11.57;;;5.05;;
10383;SDS011;5238;43.508;4.980;2022-10-31T10:13:11;15.15;;;5.30;;
10383;SDS011;5238;43.508;4.980;2022-10-31T10:16:09;12.38;;;4.78;;
10383;SDS011;5238;43.508;4.980;2022-10-31T10:19:00;15.82;;;5.35;;
10383;SDS011;5238;43.508;4.980;2022-10-31T10:21:54;12.55;;;5.05;;
10383;SDS011;5238;43.508;4.980;2022-10-31T10:24:46;10.43;;;5.10;;
10383;SDS011;5238;43.508;4.980;2022-10-31T10:27:40;12.80;;;4.78;;
10383;SDS011;5238;43.508;4.980;2022-10-31T10:30:41;8.90;;;4.72;;
10383;SDS011;5238;43.508;4.980;2022-10-31T10:33:19;17.02;;;5.38;;
10383;SDS011;5238;43.508;4.980;2022-10-31T10:35:50;10.50;;;4.20;;
10383;SDS011;5238;43.508;4.980;2022-10-31T10:38:27;12.52;;;4.22;;
10383;SDS011;5238;43.508;4.980;2022-10-31T10:41:16;12.23;;;5.00;;
10383;SDS011;5238;43.508;4.980;2022-10-31T10:46:55;11.50;;;5.25;;
10383;SDS011;5238;43.508;4.980;2022-10-31T10:49:45;10.05;;;4.57;;
10383;SDS011;5238;43.508;4.980;2022-10-31T10:52:24;12.32;;;5.03;;
10383;SDS011;5238;43.508;4.980;2022-10-31T10:55:05;14.52;;;4.28;;
10383;SDS011;5238;43.508;4.980;2022-10-31T10:57:55;10.18;;;4.30;;
10383;SDS011;5238;43.508;4.980;2022-10-31T11:00:29;16.42;;;4.53;;
10383;SDS011;5238;43.508;4.980;2022-10-31T11:03:06;10.25;;;4.40;;
10383;SDS011;5238;43.508;4.980;2022-10-31T11:05:38;15.77;;;5.05;;
10383;SDS011;5238;43.508;4.980;2022-10-31T11:08:23;14.32;;;4.75;;
10383;SDS011;5238;43.508;4.980;2022-10-31T11:11:01;15.15;;;4.78;;
10383;SDS011;5238;43.508;4.980;2022-10-31T11:13:34;13.32;;;4.65;;
10383;SDS011;5238;43.508;4.980;2022-10-31T11:19:07;19.23;;;5.45;;
10383;SDS011;5238;43.508;4.980;2022-10-31T11:21:42;12.32;;;5.00;;
10383;SDS011;5238;43.508;4.980;2022-10-31T11:24:14;15.15;;;4.95;;
10383;SDS011;5238;43.508;4.980;2022-10-31T11:27:03;14.63;;;4.35;;
10383;SDS011;5238;43.508;4.980;2022-10-31T11:29:50;18.90;;;4.78;;
10383;SDS011;5238;43.508;4.980;2022-10-31T11:35:24;14.85;;;4.40;;
10383;SDS011;5238;43.508;4.980;2022-10-31T11:37:58;9.38;;;4.38;;
10383;SDS011;5238;43.508;4.980;2022-10-31T11:40:28;13.18;;;4.43;;
10383;SDS011;5238;43.508;4.980;2022-10-31T11:42:56;12.32;;;4.82;;
10383;SDS011;5238;43.508;4.980;2022-10-31T11:45:30;16.58;;;4.57;;
10383;SDS011;5238;43.508;4.980;2022-10-31T11:48:14;11.93;;;4.78;;
10383;SDS011;5238;43.508;4.980;2022-10-31T11:50:47;13.10;;;4.93;;
10383;SDS011;5238;43.508;4.980;2022-10-31T11:53:25;13.00;;;4.47;;
10383;SDS011;5238;43.508;4.980;2022-10-31T11:56:03;16.58;;;5.07;;
10383;SDS011;5238;43.508;4.980;2022-10-31T11:58:40;20.27;;;5.20;;
10383;SDS011;5238;43.508;4.980;2022-10-31T12:01:21;13.23;;;4.45;;
10383;SDS011;5238;43.508;4.980;2022-10-31T12:04:09;13.77;;;4.63;;
10383;SDS011;5238;43.508;4.980;2022-10-31T12:06:39;13.10;;;4.80;;
10383;SDS011;5238;43.508;4.980;2022-10-31T12:09:11;14.27;;;4.80;;
10383;SDS011;5238;43.508;4.980;2022-10-31T12:11:47;13.65;;;4.22;;
10383;SDS011;5238;43.508;4.980;2022-10-31T12:14:28;10.82;;;4.40;;
10383;SDS011;5238;43.508;4.980;2022-10-31T12:17:08;15.85;;;4.68;;
10383;SDS011;5238;43.508;4.980;2022-10-31T12:19:44;10.95;;;4.60;;
10383;SDS011;5238;43.508;4.980;2022-10-31T12:22:20;10.23;;;4.13;;
10383;SDS011;5238;43.508;4.980;2022-10-31T12:25:07;12.25;;;4.32;;
10383;SDS011;5238;43.508;4.980;2022-10-31T12:28:06;14.60;;;4.55;;
10383;SDS011;5238;43.508;4.980;2022-10-31T12:31:01;16.67;;;4.60;;
10383;SDS011;5238;43.508;4.980;2022-10-31T12:33:45;14.95;;;4.43;;
10383;SDS011;5238;43.508;4.980;2022-10-31T12:42:12;13.18;;;4.22;;
10383;SDS011;5238;43.508;4.980;2022-10-31T12:45:05;10.73;;;4.65;;
10383;SDS011;5238;43.508;4.980;2022-10-31T12:47:50;19.10;;;5.22;;
10383;SDS011;5238;43.508;4.980;2022-10-31T12:50:33;18.35;;;4.40;;
10383;SDS011;5238;43.508;4.980;2022-10-31T12:53:27;10.30;;;4.00;;
10383;SDS011;5238;43.508;4.980;2022-10-31T12:56:21;15.95;;;4.15;;
10383;SDS011;5238;43.508;4.980;2022-10-31T12:58:59;11.10;;;4.45;;
10383;SDS011;5238;43.508;4.980;2022-10-31T13:01:34;12.43;;;4.15;;
10383;SDS011;5238;43.508;4.980;2022-10-31T13:04:19;11.18;;;4.10;;
10383;SDS011;5238;43.508;4.980;2022-10-31T13:07:09;10.85;;;4.20;;
10383;SDS011;5238;43.508;4.980;2022-10-31T13:09:41;15.38;;;4.57;;
10383;SDS011;5238;43.508;4.980;2022-10-31T13:12:16;14.35;;;3.90;;
10383;SDS011;5238;43.508;4.980;2022-10-31T13:15:03;14.13;;;4.68;;
10383;SDS011;5238;43.508;4.980;2022-10-31T13:17:43;10.90;;;4.68;;
10383;SDS011;5238;43.508;4.980;2022-10-31T13:20:28;14.45;;;4.78;;
10383;SDS011;5238;43.508;4.980;2022-10-31T13:23:08;13.55;;;4.18;;
10383;SDS011;5238;43.508;4.980;2022-10-31T13:25:45;11.68;;;3.90;;
10383;SDS011;5238;43.508;4.980;2022-10-31T13:28:28;13.30;;;4.05;;
10383;SDS011;5238;43.508;4.980;2022-10-31T13:31:15;14.02;;;4.05;;
10383;SDS011;5238;43.508;4.980;2022-10-31T13:33:49;13.73;;;4.05;;
10383;SDS011;5238;43.508;4.980;2022-10-31T13:36:30;13.40;;;4.28;;
10383;SDS011;5238;43.508;4.980;2022-10-31T13:39:11;14.63;;;4.10;;
10383;SDS011;5238;43.508;4.980;2022-10-31T13:42:02;12.68;;;4.55;;
10383;SDS011;5238;43.508;4.980;2022-10-31T13:44:42;17.25;;;4.20;;
10383;SDS011;5238;43.508;4.980;2022-10-31T13:47:22;12.15;;;3.97;;
10383;SDS011;5238;43.508;4.980;2022-10-31T13:50:02;13.73;;;4.63;;
10383;SDS011;5238;43.508;4.980;2022-10-31T13:52:33;13.43;;;3.72;;
10383;SDS011;5238;43.508;4.980;2022-10-31T13:55:02;14.55;;;4.32;;
10383;SDS011;5238;43.508;4.980;2022-10-31T13:57:31;10.02;;;4.10;;
10383;SDS011;5238;43.508;4.980;2022-10-31T14:02:51;16.20;;;5.57;;
10383;SDS011;5238;43.508;4.980;2022-10-31T14:05:22;15.70;;;4.65;;
10383;SDS011;5238;43.508;4.980;2022-10-31T14:07:51;10.90;;;3.92;;
10383;SDS011;5238;43.508;4.980;2022-10-31T14:10:24;13.13;;;4.22;;
10383;SDS011;5238;43.508;4.980;2022-10-31T14:13:08;10.95;;;4.22;;
10383;SDS011;5238;43.508;4.980;2022-10-31T14:16:06;10.70;;;4.25;;
10383;SDS011;5238;43.508;4.980;2022-10-31T14:18:49;12.60;;;4.80;;
10383;SDS011;5238;43.508;4.980;2022-10-31T14:21:38;14.38;;;4.30;;
10383;SDS011;5238;43.508;4.980;2022-10-31T14:24:28;8.70;;;3.97;;
10383;SDS011;5238;43.508;4.980;2022-10-31T14:27:33;16.92;;;4.22;;
10383;SDS011;5238;43.508;4.980;2022-10-31T14:30:23;14.88;;;4.05;;
10383;SDS011;5238;43.508;4.980;2022-10-31T14:33:09;19.67;;;5.18;;
10383;SDS011;5238;43.508;4.980;2022-10-31T14:35:55;11.68;;;4.13;;
10383;SDS011;5238;43.508;4.980;2022-10-31T14:38:34;14.45;;;4.28;;
10383;SDS011;5238;43.508;4.980;2022-10-31T14:41:20;12.77;;;4.30;;
10383;SDS011;5238;43.508;4.980;2022-10-31T14:44:07;12.13;;;4.13;;
10383;SDS011;5238;43.508;4.980;2022-10-31T14:47:09;16.33;;;4.57;;
10383;SDS011;5238;43.508;4.980;2022-10-31T14:50:04;20.02;;;4.68;;
10383;SDS011;5238;43.508;4.980;2022-10-31T14:52:50;14.15;;;4.32;;
10383;SDS011;5238;43.508;4.980;2022-10-31T14:55:21;14.80;;;4.47;;
10383;SDS011;5238;43.508;4.980;2022-10-31T14:57:57;13.10;;;4.30;;
10383;SDS011;5238;43.508;4.980;2022-10-31T15:00:41;12.93;;;4.80;;
10383;SDS011;5238;43.508;4.980;2022-10-31T15:03:14;12.43;;;4.60;;
10383;SDS011;5238;43.508;4.980;2022-10-31T15:08:39;11.43;;;4.18;;
10383;SDS011;5238;43.508;4.980;2022-10-31T15:11:17;14.55;;;4.40;;
10383;SDS011;5238;43.508;4.980;2022-10-31T15:13:51;9.68;;;4.22;;
10383;SDS011;5238;43.508;4.980;2022-10-31T15:16:20;14.45;;;4.65;;
10383;SDS011;5238;43.508;4.980;2022-10-31T15:18:53;15.30;;;4.55;;
10383;SDS011;5238;43.508;4.980;2022-10-31T15:21:41;14.75;;;5.03;;
10383;SDS011;5238;43.508;4.980;2022-10-31T15:24:14;10.73;;;4.70;;
10383;SDS011;5238;43.508;4.980;2022-10-31T15:26:46;16.70;;;5.03;;
10383;SDS011;5238;43.508;4.980;2022-10-31T15:29:19;12.45;;;4.60;;
10383;SDS011;5238;43.508;4.980;2022-10-31T15:31:50;11.88;;;4.43;;
10383;SDS011;5238;43.508;4.980;2022-10-31T15:34:26;11.43;;;4.32;;
10383;SDS011;5238;43.508;4.980;2022-10-31T15:40:22;14.43;;;4.95;;
10383;SDS011;5238;43.508;4.980;2022-10-31T15:42:59;10.40;;;4.82;;
10383;SDS011;5238;43.508;4.980;2022-10-31T15:45:42;11.60;;;4.50;;
10383;SDS011;5238;43.508;4.980;2022-10-31T15:48:13;11.98;;;4.43;;
10383;SDS011;5238;43.508;4.980;2022-10-31T15:50:45;11.73;;;4.70;;
10383;SDS011;5238;43.508;4.980;2022-10-31T15:53:18;14.20;;;4.55;;
10383;SDS011;5238;43.508;4.980;2022-10-31T15:55:53;10.95;;;4.15;;
10383;SDS011;5238;43.508;4.980;2022-10-31T15:58:23;11.45;;;4.82;;
10383;SDS011;5238;43.508;4.980;2022-10-31T16:00:58;11.82;;;4.60;;
10383;SDS011;5238;43.508;4.980;2022-10-31T16:03:33;8.23;;;4.05;;
10383;SDS011;5238;43.508;4.980;2022-10-31T16:06:17;14.73;;;4.93;;
10383;SDS011;5238;43.508;4.980;2022-10-31T16:11:48;16.52;;;5.05;;
10383;SDS011;5238;43.508;4.980;2022-10-31T16:14:38;13.35;;;4.60;;
10383;SDS011;5238;43.508;4.980;2022-10-31T16:17:10;11.45;;;4.50;;
10383;SDS011;5238;43.508;4.980;2022-10-31T16:19:47;12.38;;;4.70;;
10383;SDS011;5238;43.508;4.980;2022-10-31T16:22:26;16.05;;;5.20;;
10383;SDS011;5238;43.508;4.980;2022-10-31T16:25:15;14.38;;;4.75;;
10383;SDS011;5238;43.508;4.980;2022-10-31T16:27:47;18.15;;;5.43;;
10383;SDS011;5238;43.508;4.980;2022-10-31T16:30:29;13.70;;;5.10;;
10383;SDS011;5238;43.508;4.980;2022-10-31T16:33:22;15.88;;;5.95;;
10383;SDS011;5238;43.508;4.980;2022-10-31T16:35:52;12.90;;;4.70;;